createdAt,value
2018-11-05T00:00:06.029Z,237.63
2018-11-05T00:02:34.024Z,242.93
2018-11-05T00:05:02.009Z,155.97
2018-11-05T00:07:30.044Z,142.03
2018-11-05T00:09:58.092Z,155.73
2018-11-05T00:12:26.016Z,224.77
2018-11-05T00:14:53.953Z,127.30
2018-11-05T00:17:21.904Z,216.30
2018-11-05T00:19:49.837Z,114.33
2018-11-05T00:22:17.796Z,239.57
2018-11-05T00:24:45.724Z,181.47
2018-11-05T00:27:13.699Z,268.27
2018-11-05T00:29:41.637Z,155.40
2018-11-05T00:32:09.589Z,208.93
2018-11-05T00:34:37.546Z,169.67
2018-11-05T00:37:06.030Z,92.20
2018-11-05T00:39:33.998Z,124.10
2018-11-05T00:42:02.052Z,97.23
2018-11-05T00:44:30.003Z,119.80
2018-11-05T00:46:58.407Z,133.73
2018-11-05T00:49:26.425Z,68.60
2018-11-05T00:51:54.402Z,106.20
2018-11-05T00:54:22.324Z,143.70
2018-11-05T00:56:50.326Z,111.40
2018-11-05T00:59:18.266Z,71.27
2018-11-05T01:01:46.877Z,66.47
2018-11-05T01:04:14.846Z,58.20
2018-11-05T01:06:42.808Z,80.27
2018-11-05T01:09:10.758Z,86.53
2018-11-05T01:11:38.930Z,69.27
2018-11-05T01:14:07.675Z,80.50
2018-11-05T01:16:35.787Z,75.30
2018-11-05T01:19:03.902Z,81.30
2018-11-05T01:21:31.841Z,97.10
2018-11-05T01:23:59.829Z,81.93
2018-11-05T01:26:27.788Z,82.70
2018-11-05T01:28:55.883Z,81.10
2018-11-05T01:31:23.820Z,79.20
2018-11-05T01:33:51.825Z,83.30
2018-11-05T01:36:19.892Z,83.57
2018-11-05T01:38:47.886Z,77.00
2018-11-05T01:41:15.868Z,72.37
2018-11-05T01:43:43.844Z,68.87
2018-11-05T01:46:11.914Z,71.63
2018-11-05T01:48:39.937Z,67.07
2018-11-05T01:51:07.942Z,64.77
2018-11-05T01:53:35.960Z,65.83
2018-11-05T01:56:04.092Z,77.27
2018-11-05T01:58:32.056Z,69.57
2018-11-05T02:01:00.027Z,71.90
2018-11-05T02:03:27.945Z,67.43
2018-11-05T02:05:56.016Z,71.70
2018-11-05T02:08:23.976Z,72.50
2018-11-05T02:34:49.032Z,52.67
2018-11-05T02:37:16.989Z,49.27
2018-11-05T02:39:44.923Z,52.20
2018-11-05T02:42:12.906Z,53.87
2018-11-05T02:44:40.898Z,56.90
2018-11-05T02:47:08.862Z,56.93
2018-11-05T02:49:36.821Z,51.13
2018-11-05T02:52:05.078Z,55.27
2018-11-05T02:54:33.062Z,47.10
2018-11-05T02:57:00.960Z,47.00
2018-11-05T02:59:28.856Z,54.60
2018-11-05T03:01:56.798Z,48.47
2018-11-05T03:04:24.912Z,47.63
2018-11-05T03:06:52.991Z,52.87
2018-11-05T03:09:20.974Z,51.07
2018-11-05T03:11:49.012Z,49.63
2018-11-05T03:14:16.983Z,52.23
2018-11-05T03:16:44.982Z,52.33
2018-11-05T03:19:13.946Z,50.47
2018-11-05T03:21:41.925Z,51.47
2018-11-05T03:24:09.961Z,49.30
2018-11-05T03:26:37.927Z,50.87
2018-11-05T03:29:05.962Z,49.00
2018-11-05T03:31:33.889Z,51.73
2018-11-05T03:34:01.983Z,47.73
2018-11-05T03:36:29.978Z,48.70
2018-11-05T03:38:57.925Z,47.73
2018-11-05T03:41:25.929Z,48.80
2018-11-05T03:43:53.915Z,45.53
2018-11-05T03:46:21.852Z,51.70
2018-11-05T03:48:49.783Z,47.37
2018-11-05T03:51:17.783Z,50.17
2018-11-05T03:53:45.722Z,49.80
2018-11-05T03:56:13.791Z,47.23
2018-11-05T03:58:41.608Z,49.43
2018-11-05T04:01:09.545Z,53.00
2018-11-05T04:03:37.465Z,52.13
2018-11-05T04:06:05.522Z,51.33
2018-11-05T04:08:33.518Z,49.83
2018-11-05T04:11:01.456Z,48.77
2018-11-05T04:13:29.420Z,51.73
2018-11-05T04:15:57.464Z,55.17
2018-11-05T04:18:25.427Z,51.10
2018-11-05T04:20:53.416Z,54.60
2018-11-05T04:23:21.399Z,55.63
2018-11-05T04:25:49.378Z,59.57
2018-11-05T04:28:17.353Z,64.53
2018-11-05T04:30:45.317Z,66.93
2018-11-05T04:33:13.300Z,58.43
2018-11-05T04:35:41.309Z,59.30
2018-11-05T04:38:09.261Z,60.53
2018-11-05T04:40:37.232Z,60.67
2018-11-05T04:43:05.280Z,63.20
2018-11-05T04:45:33.299Z,60.37
2018-11-05T04:48:01.334Z,63.27
2018-11-05T04:50:29.268Z,62.00
2018-11-05T04:52:57.223Z,57.93
2018-11-05T04:55:25.176Z,61.87
2018-11-05T04:57:53.198Z,67.63
2018-11-05T05:00:21.174Z,66.30
2018-11-05T05:02:49.114Z,60.73
2018-11-05T05:05:17.164Z,67.93
2018-11-05T05:07:45.209Z,67.97
2018-11-05T05:10:13.289Z,59.13
2018-11-05T05:12:42.058Z,61.13
2018-11-05T05:15:10.545Z,67.17
2018-11-05T05:17:38.919Z,61.83
2018-11-05T05:20:09.160Z,63.33
2018-11-05T05:22:37.300Z,62.70
2018-11-05T05:25:05.568Z,57.90
2018-11-05T05:27:33.543Z,62.13
2018-11-05T05:30:01.530Z,65.63
2018-11-05T05:32:29.486Z,62.80
2018-11-05T05:34:57.470Z,68.90
2018-11-05T05:37:25.424Z,63.63
2018-11-05T05:39:53.408Z,59.53
2018-11-05T05:42:21.502Z,67.97
2018-11-05T05:44:49.464Z,76.07
2018-11-05T05:47:17.433Z,74.83
2018-11-05T05:49:45.527Z,70.27
2018-11-05T05:52:13.550Z,70.20
2018-11-05T05:54:41.552Z,65.87
2018-11-05T05:57:09.644Z,63.73
2018-11-05T05:59:37.627Z,63.73
2018-11-05T06:02:06.212Z,74.03
2018-11-05T06:04:34.233Z,70.77
2018-11-05T06:07:02.181Z,71.87
2018-11-05T06:09:30.161Z,75.17
2018-11-05T06:11:58.132Z,73.93
2018-11-05T06:14:26.140Z,74.30
2018-11-05T06:16:54.194Z,77.37
2018-11-05T06:19:22.195Z,79.80
2018-11-05T06:21:50.253Z,72.80
2018-11-05T06:24:18.176Z,77.13
2018-11-05T06:26:46.205Z,78.97
2018-11-05T06:29:14.181Z,80.97
2018-11-05T06:31:42.377Z,72.50
2018-11-05T06:34:10.426Z,75.67
2018-11-05T06:36:38.424Z,72.50
2018-11-05T06:39:09.114Z,76.87
2018-11-05T06:41:38.028Z,71.07
2018-11-05T06:44:06.374Z,72.73
2018-11-05T06:46:35.197Z,69.97
2018-11-05T06:49:03.231Z,61.87
2018-11-05T06:51:31.669Z,59.40
2018-11-05T06:53:59.693Z,58.40
2018-11-05T06:56:28.797Z,55.80
2018-11-05T06:58:56.816Z,55.87
2018-11-05T07:01:24.804Z,59.87
2018-11-05T07:03:52.719Z,58.10
2018-11-05T07:06:21.425Z,56.53
2018-11-05T07:08:49.454Z,56.33
2018-11-05T07:11:17.513Z,55.37
2018-11-05T07:13:45.490Z,59.40
2018-11-05T07:16:13.483Z,61.53
2018-11-05T07:18:41.795Z,60.60
2018-11-05T07:21:09.632Z,62.97
2018-11-05T07:23:37.644Z,57.57
2018-11-05T07:26:06.485Z,63.67
2018-11-05T07:28:34.448Z,57.43
2018-11-05T07:31:02.486Z,60.60
2018-11-05T07:33:30.772Z,61.43
2018-11-05T07:35:58.813Z,62.53
2018-11-05T07:38:26.820Z,69.43
2018-11-05T07:40:54.943Z,62.73
2018-11-05T07:43:22.925Z,64.73
2018-11-05T07:45:50.903Z,62.00
2018-11-05T07:48:18.996Z,60.23
2018-11-05T07:50:47.019Z,65.97
2018-11-05T07:53:15.158Z,67.83
2018-11-05T07:55:43.224Z,64.93
2018-11-05T07:58:11.189Z,68.03
2018-11-05T08:00:44.801Z,73.83
2018-11-05T08:03:12.869Z,69.97
2018-11-05T08:05:40.837Z,71.53
2018-11-05T08:08:08.820Z,75.13
2018-11-05T08:10:36.949Z,76.07
2018-11-05T08:13:07.998Z,77.10
2018-11-05T08:15:36.060Z,84.43
2018-11-05T08:18:04.168Z,78.47
2018-11-05T08:20:32.249Z,82.37
2018-11-05T08:23:00.772Z,81.73
2018-11-05T08:25:28.897Z,82.13
2018-11-05T08:27:56.913Z,85.47
2018-11-05T08:30:25.685Z,81.50
2018-11-05T08:32:54.052Z,88.80
2018-11-05T08:35:22.193Z,92.30
2018-11-05T08:37:50.884Z,84.87
2018-11-05T08:40:20.961Z,88.03
2018-11-05T08:42:49.697Z,94.53
2018-11-05T08:45:19.093Z,85.40
2018-11-05T08:47:47.088Z,85.30
2018-11-05T08:50:16.361Z,83.53
2018-11-05T08:52:44.339Z,86.03
2018-11-05T08:55:16.354Z,82.83
2018-11-05T08:57:44.560Z,86.97
2018-11-05T09:00:47.227Z,86.83
2018-11-05T09:03:15.268Z,87.27
2018-11-05T09:05:43.368Z,83.90
2018-11-05T09:08:11.345Z,82.83
2018-11-05T09:10:39.606Z,79.37
2018-11-05T09:13:07.434Z,81.00
2018-11-05T09:15:35.385Z,88.90
2018-11-05T09:18:04.493Z,82.27
2018-11-05T09:20:32.591Z,90.30
2018-11-05T09:23:00.573Z,87.47
2018-11-05T09:25:28.531Z,80.87
2018-11-05T09:27:56.587Z,93.37
2018-11-05T09:30:25.128Z,89.80
2018-11-05T09:32:55.403Z,93.50
2018-11-05T09:35:23.432Z,87.37
2018-11-05T09:37:51.455Z,95.73
2018-11-05T09:40:21.483Z,89.83
2018-11-05T09:42:50.486Z,98.27
2018-11-05T09:45:21.906Z,88.27
2018-11-05T09:47:50.034Z,96.87
2018-11-05T09:50:18.727Z,96.63
2018-11-05T09:52:46.721Z,94.00
2018-11-05T09:55:15.338Z,94.20
2018-11-05T09:57:43.304Z,83.67
2018-11-05T10:00:14.199Z,94.63
2018-11-05T10:02:47.917Z,96.20
2018-11-05T10:05:16.365Z,99.53
2018-11-05T10:07:44.782Z,103.10
2018-11-05T10:10:13.680Z,100.80
2018-11-05T10:12:41.840Z,96.97
2018-11-05T10:15:11.028Z,96.50
2018-11-05T10:17:39.282Z,115.57
2018-11-05T10:20:12.289Z,111.97
2018-11-05T10:22:40.286Z,106.63
2018-11-05T10:25:09.548Z,107.90
2018-11-05T10:27:37.284Z,102.13
2018-11-05T10:30:07.323Z,101.33
2018-11-05T10:32:35.369Z,98.27
2018-11-05T10:35:03.417Z,105.67
2018-11-05T10:37:31.484Z,95.70
2018-11-05T10:39:59.476Z,102.67
2018-11-05T10:42:27.689Z,92.83
2018-11-05T10:44:55.696Z,87.33
2018-11-05T10:47:23.636Z,88.47
2018-11-05T10:49:51.658Z,84.20
2018-11-05T10:52:20.146Z,94.50
2018-11-05T10:54:48.143Z,86.33
2018-11-05T10:57:16.114Z,89.70
2018-11-05T10:59:44.386Z,92.60
2018-11-05T11:02:18.048Z,90.47
2018-11-05T11:04:46.020Z,93.37
2018-11-05T11:07:14.022Z,90.07
2018-11-05T11:09:48.759Z,91.43
2018-11-05T11:12:16.725Z,92.77
2018-11-05T11:14:44.604Z,92.00
2018-11-05T11:17:13.992Z,97.60
2018-11-05T11:19:42.336Z,94.70
2018-11-05T11:22:11.749Z,95.67
2018-11-05T11:24:39.697Z,98.03
2018-11-05T11:27:07.668Z,105.50
2018-11-05T11:29:35.669Z,100.43
2018-11-05T11:32:05.061Z,104.73
2018-11-05T11:34:32.959Z,98.67
2018-11-05T11:37:00.962Z,102.80
2018-11-05T11:39:28.909Z,92.07
2018-11-05T11:41:56.940Z,95.50
2018-11-05T11:44:24.917Z,93.93
2018-11-05T11:46:52.841Z,93.33
2018-11-05T11:49:20.831Z,101.77
2018-11-05T11:51:48.785Z,110.23
2018-11-05T11:54:16.744Z,106.33
2018-11-05T11:56:44.766Z,104.47
2018-11-05T11:59:12.869Z,111.73
2018-11-05T12:01:46.494Z,107.47
2018-11-05T12:04:14.669Z,105.90
2018-11-05T12:06:42.855Z,113.70
2018-11-05T12:09:10.860Z,110.80
2018-11-05T12:11:38.941Z,113.13
2018-11-05T12:14:07.164Z,113.87
2018-11-05T12:16:35.660Z,111.17
2018-11-05T12:19:04.156Z,108.23
2018-11-05T12:21:32.199Z,111.80
2018-11-05T12:24:00.150Z,108.57
2018-11-05T12:26:28.193Z,107.57
2018-11-05T12:28:56.205Z,109.53
2018-11-05T12:31:24.181Z,111.80
2018-11-05T12:33:52.248Z,100.13
2018-11-05T12:36:20.245Z,105.03
2018-11-05T12:38:48.175Z,103.90
2018-11-05T12:41:16.108Z,104.83
2018-11-05T12:43:44.054Z,110.50
2018-11-05T12:46:11.998Z,114.83
2018-11-05T12:48:40.040Z,109.20
2018-11-05T12:51:08.032Z,112.13
2018-11-05T12:53:36.044Z,110.30
2018-11-05T12:56:04.036Z,114.80
2018-11-05T12:58:31.980Z,115.60
2018-11-05T13:01:00.057Z,112.50
2018-11-05T13:03:27.971Z,115.07
2018-11-05T13:05:55.945Z,111.93
2018-11-05T13:08:23.900Z,117.80
2018-11-05T13:10:51.820Z,111.30
2018-11-05T13:13:19.806Z,114.20
2018-11-05T13:15:47.773Z,122.83
2018-11-05T13:18:15.691Z,124.20
2018-11-05T13:20:43.673Z,119.20
2018-11-05T13:23:11.609Z,121.30
2018-11-05T13:25:39.542Z,104.93
2018-11-05T13:28:07.576Z,108.87
2018-11-05T13:30:35.570Z,103.90
2018-11-05T13:33:03.596Z,92.60
2018-11-05T13:35:31.585Z,103.83
2018-11-05T13:38:00.043Z,99.70
2018-11-05T13:40:27.560Z,108.23
2018-11-05T13:42:55.590Z,110.20
2018-11-05T13:45:23.616Z,104.53
2018-11-05T13:47:52.566Z,107.83
2018-11-05T13:50:19.975Z,104.83
2018-11-05T13:52:47.599Z,107.17
2018-11-05T13:55:16.431Z,104.37
2018-11-05T13:57:45.466Z,107.00
2018-11-05T14:00:14.842Z,104.27
2018-11-05T14:02:42.874Z,96.87
2018-11-05T14:05:11.447Z,104.43
2018-11-05T14:07:39.728Z,110.73
2018-11-05T14:10:10.518Z,104.07
2018-11-05T14:12:38.587Z,103.33
2018-11-05T14:15:06.697Z,107.40
2018-11-05T14:17:34.681Z,102.23
2018-11-05T14:20:02.752Z,108.00
2018-11-05T14:22:30.702Z,105.67
2018-11-05T14:24:58.733Z,100.10
2018-11-05T14:27:26.872Z,105.33
2018-11-05T14:29:55.023Z,93.77
2018-11-05T14:32:22.711Z,100.60
2018-11-05T14:34:50.638Z,100.60
2018-11-05T14:37:18.956Z,106.37
2018-11-05T14:39:46.887Z,100.93
2018-11-05T14:42:14.833Z,101.77
2018-11-05T14:44:42.781Z,107.37
2018-11-05T14:47:10.725Z,101.60
2018-11-05T14:49:38.732Z,102.90
2018-11-05T14:52:06.766Z,102.23
2018-11-05T14:54:34.880Z,102.93
2018-11-05T14:57:02.857Z,107.00
2018-11-05T14:59:30.776Z,107.97
2018-11-05T15:02:04.324Z,108.27
2018-11-05T15:04:32.274Z,115.33
2018-11-05T15:07:00.298Z,106.80
2018-11-05T15:09:28.191Z,110.27
2018-11-05T15:11:56.236Z,113.90
2018-11-05T15:14:24.128Z,125.03
2018-11-05T15:16:52.273Z,121.00
2018-11-05T15:19:20.582Z,115.53
2018-11-05T15:21:48.184Z,115.17
2018-11-05T15:24:16.505Z,112.37
2018-11-05T15:26:44.585Z,111.20
2018-11-05T15:29:12.590Z,112.97
2018-11-05T15:31:40.573Z,124.90
2018-11-05T15:34:09.231Z,114.57
2018-11-05T15:36:37.227Z,116.07
2018-11-05T15:39:07.447Z,105.37
2018-11-05T15:41:35.897Z,110.23
2018-11-05T15:44:03.912Z,109.20
2018-11-05T15:46:31.924Z,97.13
2018-11-05T15:48:59.936Z,102.73
2018-11-05T15:51:28.187Z,115.20
2018-11-05T15:53:56.364Z,111.27
2018-11-05T15:56:24.317Z,113.17
2018-11-05T15:58:52.301Z,108.47
2018-11-05T16:01:20.278Z,104.00
2018-11-05T16:03:48.668Z,100.40
2018-11-05T16:06:16.660Z,113.43
2018-11-05T16:08:45.402Z,105.17
2018-11-05T16:11:13.325Z,98.50
2018-11-05T16:13:41.271Z,95.73
2018-11-05T16:16:09.213Z,95.57
2018-11-05T16:18:37.290Z,99.40
2018-11-05T16:21:05.435Z,92.83
2018-11-05T16:23:33.404Z,93.03
2018-11-05T16:26:01.458Z,86.77
2018-11-05T16:28:29.452Z,89.80
2018-11-05T16:30:57.365Z,90.13
2018-11-05T16:33:25.327Z,88.20
2018-11-05T16:35:53.223Z,87.60
2018-11-05T16:38:21.248Z,97.40
2018-11-05T16:40:49.133Z,89.40
2018-11-05T16:43:17.056Z,88.93
2018-11-05T16:45:45.064Z,100.23
2018-11-05T16:48:13.151Z,96.17
2018-11-05T16:50:48.480Z,82.47
2018-11-05T16:53:23.565Z,95.30
2018-11-05T16:55:51.583Z,94.50
2018-11-05T16:58:19.563Z,92.87
2018-11-05T17:00:47.606Z,84.77
2018-11-05T17:03:15.460Z,88.53
2018-11-05T17:05:43.345Z,80.67
2018-11-05T17:08:11.728Z,90.03
2018-11-05T17:10:39.687Z,85.80
2018-11-05T17:13:07.681Z,88.57
2018-11-05T17:15:36.419Z,88.17
2018-11-05T17:18:04.387Z,80.67
2018-11-05T17:20:32.665Z,76.70
2018-11-05T17:23:00.599Z,90.77
2018-11-05T17:25:28.825Z,88.10
2018-11-05T17:27:56.954Z,91.67
2018-11-05T17:30:24.963Z,89.93
2018-11-05T17:32:52.972Z,87.13
2018-11-05T17:35:20.905Z,88.57
2018-11-05T17:37:49.121Z,105.13
2018-11-05T17:40:18.656Z,100.80
2018-11-05T17:42:46.517Z,89.23
2018-11-05T17:45:15.804Z,96.40
2018-11-05T17:47:47.175Z,106.80
2018-11-05T17:50:16.781Z,91.33
2018-11-05T17:52:45.048Z,83.87
2018-11-05T17:55:14.329Z,88.57
2018-11-05T17:57:43.253Z,81.30
2018-11-05T18:00:14.358Z,90.00
2018-11-05T18:02:42.423Z,84.40
2018-11-05T18:05:10.468Z,81.00
2018-11-05T18:07:38.383Z,90.93
2018-11-05T18:10:06.749Z,80.03
2018-11-05T18:12:34.905Z,87.83
2018-11-05T18:15:03.155Z,84.97
2018-11-05T18:20:34.265Z,78.13
2018-11-05T18:23:02.272Z,70.33
2018-11-05T18:25:30.204Z,63.80
2018-11-05T18:27:59.146Z,66.23
2018-11-05T18:30:27.126Z,69.33
2018-11-05T18:32:55.086Z,69.90
2018-11-05T18:35:22.980Z,77.87
2018-11-05T18:37:51.672Z,60.97
2018-11-05T18:40:19.579Z,67.10
2018-11-05T18:42:47.620Z,67.70
2018-11-05T18:45:15.935Z,67.70
2018-11-05T18:47:44.041Z,67.60
2018-11-05T18:50:13.527Z,73.30
2018-11-05T18:52:41.801Z,82.77
2018-11-05T18:55:11.241Z,73.60
2018-11-05T18:57:39.684Z,69.07
2018-11-05T19:00:15.363Z,63.97
2018-11-05T19:02:43.568Z,75.97
2018-11-05T19:05:11.465Z,67.47
2018-11-05T19:07:40.968Z,73.20
2018-11-05T19:10:08.916Z,69.77
2018-11-05T19:12:36.949Z,64.07
2018-11-05T19:15:08.431Z,65.73
2018-11-05T19:17:36.430Z,70.33
2018-11-05T19:20:06.307Z,69.63
2018-11-05T19:22:35.195Z,58.67
2018-11-05T19:25:03.315Z,70.50
2018-11-05T19:27:31.404Z,63.10
2018-11-05T19:30:00.477Z,63.20
2018-11-05T19:32:28.418Z,63.43
2018-11-05T19:34:56.430Z,67.73
2018-11-05T19:37:24.503Z,78.63
2018-11-05T19:39:54.674Z,81.07
2018-11-05T19:42:20.929Z,66.03
2018-11-05T19:44:48.869Z,58.43
2018-11-05T19:47:17.261Z,54.40
2018-11-05T19:49:45.333Z,53.80
2018-11-05T19:52:13.359Z,61.93
2018-11-05T19:54:41.310Z,67.47
2018-11-05T19:57:09.329Z,60.87
2018-11-05T19:59:37.313Z,64.13
2018-11-05T20:02:06.356Z,63.53
2018-11-05T20:04:34.351Z,57.57
2018-11-05T20:07:02.347Z,68.10
2018-11-05T20:09:30.352Z,71.10
2018-11-05T20:11:58.276Z,72.07
2018-11-05T20:14:26.235Z,78.80
2018-11-05T20:16:54.243Z,80.20
2018-11-05T20:19:22.358Z,71.27
2018-11-05T20:21:50.270Z,70.63
2018-11-05T20:24:18.237Z,80.90
2018-11-05T20:26:47.098Z,80.60
2018-11-05T20:29:16.220Z,74.77
2018-11-05T20:31:44.490Z,66.13
2018-11-05T20:34:12.708Z,65.57
2018-11-05T20:36:40.416Z,63.63
2018-11-05T20:39:09.485Z,61.00
2018-11-05T20:41:37.501Z,53.87
2018-11-05T20:44:06.171Z,55.67
2018-11-05T20:46:34.155Z,46.57
2018-11-05T20:49:02.235Z,44.53
2018-11-05T20:51:30.325Z,55.17
2018-11-05T20:53:58.501Z,54.63
2018-11-05T20:56:26.927Z,58.80
2018-11-05T20:58:54.936Z,59.77
2018-11-05T21:01:22.916Z,56.93
2018-11-05T21:03:50.910Z,55.93
2018-11-05T21:06:19.349Z,58.20
2018-11-05T21:08:47.406Z,58.73
2018-11-05T21:11:15.358Z,59.07
2018-11-05T21:13:43.382Z,82.17
2018-11-05T21:16:11.812Z,67.57
2018-11-05T21:18:39.897Z,62.13
2018-11-05T21:21:07.925Z,67.13
2018-11-05T21:23:35.808Z,61.13
2018-11-05T21:26:04.704Z,66.93
2018-11-05T21:28:32.640Z,62.10
2018-11-05T21:31:01.070Z,67.37
2018-11-05T21:33:29.096Z,70.07
2018-11-05T21:35:57.177Z,72.50
2018-11-05T21:38:25.451Z,69.70
2018-11-05T21:40:53.446Z,60.27
2018-11-05T21:43:21.469Z,69.60
2018-11-05T21:45:49.416Z,78.23
2018-11-05T21:48:17.464Z,81.87
2018-11-05T21:50:45.567Z,80.13
2018-11-05T21:53:13.510Z,77.30
2018-11-05T21:55:41.432Z,65.67
2018-11-05T21:58:09.335Z,64.63
2018-11-05T22:00:37.347Z,78.37
2018-11-05T22:03:09.957Z,78.20
2018-11-05T22:05:38.388Z,72.43
2018-11-05T22:08:06.400Z,76.23
2018-11-05T22:10:34.351Z,68.33
2018-11-05T22:13:02.292Z,62.13
2018-11-05T22:15:39.547Z,59.30
2018-11-05T22:18:07.554Z,59.67
2018-11-05T22:20:35.460Z,65.00
2018-11-05T22:23:03.459Z,61.47
2018-11-05T22:25:31.387Z,59.00
2018-11-05T22:27:59.345Z,55.73
2018-11-05T22:30:27.362Z,57.40
2018-11-05T22:32:55.264Z,55.97
2018-11-05T22:35:23.249Z,56.70
2018-11-05T22:37:51.255Z,57.87
2018-11-05T22:40:19.216Z,53.93
2018-11-05T22:42:47.200Z,59.60
2018-11-05T22:45:15.247Z,56.50
2018-11-05T22:47:44.093Z,61.50
2018-11-05T22:50:12.022Z,63.33
2018-11-05T22:52:40.735Z,62.23
2018-11-05T22:55:09.125Z,59.67
2018-11-05T22:57:37.125Z,62.00
2018-11-05T23:00:16.397Z,63.53
2018-11-05T23:02:50.071Z,55.17
2018-11-05T23:05:18.305Z,60.67
2018-11-05T23:07:46.308Z,55.50
2018-11-05T23:10:14.298Z,50.60
2018-11-05T23:12:42.289Z,56.43
2018-11-05T23:15:10.407Z,55.63
2018-11-05T23:17:38.534Z,59.30
2018-11-05T23:20:07.221Z,68.23
2018-11-05T23:22:35.200Z,65.23
2018-11-05T23:25:03.289Z,64.17
2018-11-05T23:27:31.274Z,68.37
2018-11-05T23:29:59.310Z,76.10
2018-11-05T23:32:27.372Z,67.37
2018-11-05T23:34:55.342Z,65.83
2018-11-05T23:37:23.305Z,64.37
2018-11-05T23:39:51.288Z,68.87
2018-11-05T23:42:19.230Z,56.80
2018-11-05T23:44:47.185Z,55.67
2018-11-05T23:47:15.216Z,67.20
2018-11-05T23:49:43.150Z,63.90
2018-11-05T23:52:11.239Z,71.47
2018-11-05T23:54:39.155Z,59.50
2018-11-05T23:57:07.128Z,66.43
2018-11-05T23:59:35.025Z,59.23
